createdAt,value
2016-12-26T00:00:42.041Z,958.91
2016-12-26T00:01:51.053Z,958.91
2016-12-26T00:02:59.753Z,958.92
2016-12-26T00:04:08.447Z,958.84
2016-12-26T00:05:17.461Z,958.85
2016-12-26T00:06:26.164Z,958.88
2016-12-26T00:07:34.863Z,958.84
2016-12-26T00:08:43.559Z,958.87
2016-12-26T00:09:52.256Z,958.85
2016-12-26T00:11:00.978Z,958.96
2016-12-26T00:12:09.677Z,958.81
2016-12-26T00:13:18.371Z,958.83
2016-12-26T00:14:27.075Z,958.81
2016-12-26T00:15:35.773Z,958.72
2016-12-26T00:16:44.468Z,958.69
2016-12-26T00:17:53.166Z,958.76
2016-12-26T00:19:01.892Z,958.81
2016-12-26T00:20:10.588Z,958.84
2016-12-26T00:21:19.603Z,958.8
2016-12-26T00:22:28.329Z,958.8
2016-12-26T00:23:37.026Z,958.92
2016-12-26T00:24:45.729Z,958.91
2016-12-26T00:25:54.422Z,958.8
2016-12-26T00:27:03.118Z,958.83
2016-12-26T00:28:11.813Z,959.04
2016-12-26T00:29:20.516Z,958.88
2016-12-26T00:30:29.218Z,958.89
2016-12-26T00:31:37.913Z,958.94
2016-12-26T00:32:46.608Z,959.05
2016-12-26T00:33:55.307Z,959.1
2016-12-26T00:35:04.000Z,959.05
2016-12-26T00:36:13.011Z,959.03
2016-12-26T00:37:21.706Z,958.93
2016-12-26T00:38:30.402Z,959.05
2016-12-26T00:39:39.101Z,958.94
2016-12-26T00:40:47.800Z,958.92
2016-12-26T00:41:56.499Z,958.97
2016-12-26T00:43:05.197Z,959.02
2016-12-26T00:44:13.891Z,958.98
2016-12-26T00:45:22.585Z,959.04
2016-12-26T00:46:31.289Z,959.03
2016-12-26T00:47:39.984Z,959.1
2016-12-26T00:48:48.684Z,959.21
2016-12-26T00:49:57.380Z,959.05
2016-12-26T00:51:06.108Z,959.08
2016-12-26T00:52:14.811Z,959.13
2016-12-26T00:53:23.511Z,959.47
2016-12-26T00:54:32.210Z,959.57
2016-12-26T00:55:40.906Z,959.35
2016-12-26T00:56:49.600Z,959.5
2016-12-26T00:57:58.298Z,959.32
2016-12-26T00:59:06.992Z,959.44
2016-12-26T01:00:15.687Z,959.38
2016-12-26T01:01:24.382Z,959.39
2016-12-26T01:02:33.084Z,959.33
2016-12-26T01:03:41.786Z,959.35
2016-12-26T01:04:50.481Z,959.35
2016-12-26T01:05:59.176Z,959.33
2016-12-26T01:07:07.908Z,959.21
2016-12-26T01:08:16.922Z,959.15
2016-12-26T01:09:25.622Z,959.29
2016-12-26T01:10:34.352Z,959.16
2016-12-26T01:11:43.051Z,959.2
2016-12-26T01:12:51.750Z,959.05
2016-12-26T01:14:00.475Z,959.12
2016-12-26T01:15:09.173Z,959.1
2016-12-26T01:16:17.871Z,958.99
2016-12-26T01:17:26.567Z,959.01
2016-12-26T01:18:35.262Z,958.94
2016-12-26T01:19:43.955Z,958.99
2016-12-26T01:20:52.654Z,958.91
2016-12-26T01:22:01.356Z,958.87
2016-12-26T01:23:10.052Z,958.91
2016-12-26T01:24:18.747Z,958.88
2016-12-26T01:25:27.441Z,958.89
2016-12-26T01:26:36.171Z,958.96
2016-12-26T01:27:45.184Z,959
2016-12-26T01:28:53.882Z,958.97
2016-12-26T01:30:02.599Z,959.13
2016-12-26T01:31:11.292Z,959.09
2016-12-26T01:32:20.003Z,959.01
2016-12-26T01:33:28.697Z,959.01
2016-12-26T01:34:37.403Z,958.93
2016-12-26T01:35:46.104Z,959.05
2016-12-26T01:36:54.804Z,958.96
2016-12-26T01:38:03.499Z,958.93
2016-12-26T01:39:12.194Z,959.02
2016-12-26T01:40:20.890Z,959.18
2016-12-26T01:41:29.590Z,959.37
2016-12-26T01:42:38.288Z,959.07
2016-12-26T01:43:46.986Z,959.09
2016-12-26T01:44:55.683Z,959.36
2016-12-26T01:46:04.403Z,959.07
2016-12-26T01:47:13.102Z,958.93
2016-12-26T01:48:21.799Z,958.9
2016-12-26T01:49:30.495Z,958.89
2016-12-26T01:50:39.189Z,958.92
2016-12-26T01:51:47.882Z,958.87
2016-12-26T01:52:56.576Z,958.95
2016-12-26T01:54:05.270Z,958.83
2016-12-26T01:55:13.966Z,958.75
2016-12-26T01:56:22.660Z,958.74
2016-12-26T01:57:31.356Z,958.78
2016-12-26T01:58:40.050Z,958.85
2016-12-26T01:59:48.749Z,958.77
2016-12-26T02:00:57.445Z,958.86
2016-12-26T02:02:06.143Z,958.71
2016-12-26T02:03:14.843Z,958.96
2016-12-26T02:04:23.542Z,958.91
2016-12-26T02:05:32.254Z,958.88
2016-12-26T02:06:40.949Z,958.84
2016-12-26T02:07:49.647Z,958.95
2016-12-26T02:08:58.345Z,958.9
2016-12-26T02:10:07.040Z,958.97
2016-12-26T02:11:15.738Z,958.77
2016-12-26T02:12:24.434Z,958.78
2016-12-26T02:13:33.130Z,958.76
2016-12-26T02:14:41.830Z,958.7
2016-12-26T02:15:50.525Z,958.73
2016-12-26T02:16:59.220Z,958.81
2016-12-26T02:18:07.920Z,959.18
2016-12-26T02:19:16.618Z,958.93
2016-12-26T02:20:25.315Z,958.62
2016-12-26T02:21:34.036Z,958.97
2016-12-26T02:22:42.728Z,958.94
2016-12-26T02:23:51.424Z,958.98
2016-12-26T02:25:00.117Z,958.95
2016-12-26T02:26:08.812Z,958.86
2016-12-26T02:27:17.507Z,958.94
2016-12-26T02:28:26.203Z,959.18
2016-12-26T02:29:34.902Z,959.36
2016-12-26T02:30:43.600Z,959.25
2016-12-26T02:31:52.307Z,959.05
2016-12-26T02:33:01.319Z,958.98
2016-12-26T02:34:10.014Z,959.07
2016-12-26T02:35:18.711Z,958.87
2016-12-26T02:36:27.404Z,959.13
2016-12-26T02:37:36.127Z,959.37
2016-12-26T02:38:44.821Z,959.15
2016-12-26T02:39:53.514Z,958.91
2016-12-26T02:41:02.210Z,958.9
2016-12-26T02:42:10.906Z,958.93
2016-12-26T02:43:19.598Z,959.15
2016-12-26T02:44:28.289Z,959.04
2016-12-26T02:45:36.986Z,959.4
2016-12-26T02:46:45.683Z,959.01
2016-12-26T02:47:54.382Z,959.33
2016-12-26T02:49:03.075Z,959.32
2016-12-26T02:50:11.770Z,959.49
2016-12-26T02:51:20.469Z,959.2
2016-12-26T02:52:29.165Z,959.18
2016-12-26T02:53:37.858Z,959.18
2016-12-26T02:54:46.549Z,959.33
2016-12-26T02:55:55.266Z,959.23
2016-12-26T02:57:03.961Z,959.47
2016-12-26T02:58:12.656Z,959.55
2016-12-26T02:59:21.348Z,959.49
2016-12-26T03:00:30.044Z,959.73
2016-12-26T03:01:38.740Z,959.22
2016-12-26T03:02:47.433Z,959.38
2016-12-26T03:03:56.126Z,959.32
2016-12-26T03:05:04.819Z,959.34
2016-12-26T03:06:13.563Z,959.38
2016-12-26T03:07:22.296Z,959.47
2016-12-26T03:08:30.990Z,959.23
2016-12-26T03:09:39.689Z,959.38
2016-12-26T03:10:48.388Z,959.27
2016-12-26T03:11:57.082Z,959.93
2016-12-26T03:13:05.784Z,959.87
2016-12-26T03:14:14.483Z,959.66
2016-12-26T03:15:23.177Z,959.49
2016-12-26T03:16:31.901Z,959.52
2016-12-26T03:17:40.644Z,959.41
2016-12-26T03:18:49.339Z,959.45
2016-12-26T03:19:58.044Z,959.4
2016-12-26T03:21:06.747Z,959.78
2016-12-26T03:22:15.445Z,959.65
2016-12-26T03:23:24.457Z,959.52
2016-12-26T03:24:33.152Z,959.67
2016-12-26T03:25:41.846Z,959.83
2016-12-26T03:26:50.540Z,959.45
2016-12-26T03:27:59.234Z,959.59
2016-12-26T03:29:07.929Z,959.58
2016-12-26T03:30:16.625Z,960.02
2016-12-26T03:31:25.322Z,959.71
2016-12-26T03:32:34.018Z,959.87
2016-12-26T03:33:42.715Z,959.38
2016-12-26T03:34:51.414Z,959.53
2016-12-26T03:36:00.109Z,959.35
2016-12-26T03:37:08.802Z,959.47
2016-12-26T03:38:17.506Z,959.4
2016-12-26T03:39:26.202Z,959.28
2016-12-26T03:40:34.901Z,959.47
2016-12-26T03:41:43.605Z,959.47
2016-12-26T03:42:52.302Z,959.37
2016-12-26T03:44:00.997Z,959.49
2016-12-26T03:45:10.031Z,959.49
2016-12-26T03:46:18.824Z,959.38
2016-12-26T03:47:27.518Z,959.38
2016-12-26T03:48:36.210Z,959.3
2016-12-26T03:49:44.900Z,959.34
2016-12-26T03:50:53.594Z,959.29
2016-12-26T03:52:02.294Z,959.36
2016-12-26T03:53:10.990Z,959.23
2016-12-26T03:54:19.682Z,959.38
2016-12-26T03:55:28.378Z,959.27
2016-12-26T03:56:37.071Z,959.53
2016-12-26T03:57:46.116Z,959.27
2016-12-26T03:58:55.132Z,959.18
2016-12-26T04:00:03.828Z,959.22
2016-12-26T04:01:12.521Z,959.31
2016-12-26T04:02:21.213Z,959.34
2016-12-26T04:03:29.907Z,959.35
2016-12-26T04:04:38.608Z,959.45
2016-12-26T04:05:47.304Z,959.51
2016-12-26T04:06:56.333Z,959.6
2016-12-26T04:08:05.036Z,959.49
2016-12-26T04:09:13.733Z,959.42
2016-12-26T04:10:22.429Z,959.47
2016-12-26T04:11:31.127Z,959.68
2016-12-26T04:12:39.852Z,959.65
2016-12-26T04:13:48.548Z,959.8
2016-12-26T04:14:57.238Z,959.58
2016-12-26T04:16:05.933Z,959.68
2016-12-26T04:17:14.628Z,959.37
2016-12-26T04:18:23.642Z,959.58
2016-12-26T04:19:32.341Z,959.46
2016-12-26T04:20:41.036Z,959.47
2016-12-26T04:21:49.731Z,959.31
2016-12-26T04:22:58.443Z,959.11
2016-12-26T04:24:07.143Z,959.21
2016-12-26T04:25:15.835Z,959.44
2016-12-26T04:26:24.530Z,959.26
2016-12-26T04:27:33.225Z,959.42
2016-12-26T04:28:41.922Z,959.37
2016-12-26T04:29:50.630Z,959.56
2016-12-26T04:30:59.323Z,959.53
2016-12-26T04:32:08.024Z,959.86
2016-12-26T04:33:16.747Z,959.54
2016-12-26T04:34:25.444Z,959.49
2016-12-26T04:35:34.134Z,959.56
2016-12-26T04:36:42.832Z,959.66
2016-12-26T04:37:51.530Z,959.66
2016-12-26T04:39:00.226Z,959.79
2016-12-26T04:40:08.922Z,959.68
2016-12-26T04:41:17.616Z,959.83
2016-12-26T04:42:26.311Z,959.65
2016-12-26T04:43:35.006Z,959.76
2016-12-26T04:44:43.700Z,959.63
2016-12-26T04:45:52.393Z,959.71
2016-12-26T04:47:01.089Z,959.59
2016-12-26T04:48:09.782Z,959.95
2016-12-26T04:49:18.480Z,959.9
2016-12-26T04:50:27.177Z,959.7
2016-12-26T04:51:35.906Z,960
2016-12-26T04:52:44.601Z,959.88
2016-12-26T04:53:53.293Z,959.81
2016-12-26T04:55:02.304Z,959.72
2016-12-26T04:56:11.000Z,959.97
2016-12-26T04:57:19.702Z,959.97
2016-12-26T04:58:28.396Z,960.18
2016-12-26T04:59:37.093Z,960.12
2016-12-26T05:00:45.801Z,959.74
2016-12-26T05:01:54.494Z,959.9
2016-12-26T05:03:03.189Z,959.76
2016-12-26T05:04:11.880Z,959.75
2016-12-26T05:05:20.578Z,960.15
2016-12-26T05:06:29.274Z,960.39
2016-12-26T05:07:37.969Z,960.28
2016-12-26T05:08:46.666Z,960.1
2016-12-26T05:09:55.355Z,959.74
2016-12-26T05:11:04.049Z,959.81
2016-12-26T05:12:12.746Z,959.86
2016-12-26T05:13:21.441Z,959.85
2016-12-26T05:14:30.136Z,959.92
2016-12-26T05:15:38.829Z,959.96
2016-12-26T05:16:47.529Z,959.9
2016-12-26T05:17:56.226Z,959.87
2016-12-26T05:19:04.923Z,960.06
2016-12-26T05:20:13.620Z,960.29
2016-12-26T05:21:22.320Z,960.06
2016-12-26T05:22:31.016Z,960.09
2016-12-26T05:23:39.711Z,960.24
2016-12-26T05:24:48.416Z,960.58
2016-12-26T05:25:57.113Z,960.46
2016-12-26T05:27:05.808Z,960.27
2016-12-26T05:28:14.502Z,960.36
2016-12-26T05:29:23.194Z,960.52
2016-12-26T05:30:31.889Z,960.39
2016-12-26T05:31:40.585Z,960.6
2016-12-26T05:32:49.277Z,960.89
2016-12-26T05:33:57.970Z,960.5
2016-12-26T05:35:06.665Z,960.33
2016-12-26T05:36:15.359Z,960.63
2016-12-26T05:37:24.052Z,960.71
2016-12-26T05:38:32.753Z,960.49
2016-12-26T05:39:41.450Z,960.3
2016-12-26T05:40:50.463Z,960.35
2016-12-26T05:41:59.158Z,960.4
2016-12-26T05:43:07.850Z,960.42
2016-12-26T05:44:16.574Z,960.54
2016-12-26T05:45:25.271Z,960.55
2016-12-26T05:46:33.973Z,960.63
2016-12-26T05:47:42.670Z,960.66
2016-12-26T05:48:51.365Z,960.63
2016-12-26T05:50:00.060Z,960.44
2016-12-26T05:51:08.753Z,960.28
2016-12-26T05:52:17.445Z,960.48
2016-12-26T05:53:26.165Z,960.6
2016-12-26T05:54:34.860Z,960.75
2016-12-26T05:55:43.553Z,960.42
2016-12-26T05:56:52.245Z,960.44
2016-12-26T05:58:00.935Z,960.47
2016-12-26T05:59:09.626Z,960.49
2016-12-26T06:00:18.317Z,960.37
2016-12-26T06:01:27.112Z,960.61
2016-12-26T06:02:35.804Z,960.48
2016-12-26T06:03:44.497Z,960.48
2016-12-26T06:04:53.196Z,960.41
2016-12-26T06:06:01.892Z,960.48
2016-12-26T06:07:10.590Z,960.57
2016-12-26T06:08:19.284Z,960.7
2016-12-26T06:09:27.975Z,960.68
2016-12-26T06:10:36.666Z,960.91
2016-12-26T06:11:45.361Z,960.65
2016-12-26T06:12:54.053Z,960.66
2016-12-26T06:14:02.749Z,960.39
2016-12-26T06:15:11.446Z,960.48
2016-12-26T06:16:20.142Z,960.31
2016-12-26T06:17:28.834Z,960.51
2016-12-26T06:18:37.522Z,960.4
2016-12-26T06:19:46.215Z,960.45
2016-12-26T06:20:54.912Z,960.46
2016-12-26T06:22:03.604Z,960.68
2016-12-26T06:23:12.298Z,960.57
2016-12-26T06:24:20.987Z,960.77
2016-12-26T06:25:29.680Z,960.66
2016-12-26T06:26:38.374Z,960.62
2016-12-26T06:27:47.068Z,960.63
2016-12-26T06:28:55.763Z,960.72
2016-12-26T06:30:04.455Z,960.66
2016-12-26T06:31:13.176Z,960.68
2016-12-26T06:32:21.871Z,960.66
2016-12-26T06:33:30.567Z,960.62
2016-12-26T06:34:39.261Z,960.71
2016-12-26T06:35:47.953Z,960.72
2016-12-26T06:36:56.649Z,960.63
2016-12-26T06:38:05.351Z,960.91
2016-12-26T06:39:14.046Z,960.5
2016-12-26T06:40:22.740Z,960.44
2016-12-26T06:41:31.434Z,960.44
2016-12-26T06:42:40.125Z,960.54
2016-12-26T06:43:48.821Z,960.54
2016-12-26T06:44:57.519Z,960.53
2016-12-26T06:46:06.212Z,960.49
2016-12-26T06:47:14.903Z,960.66
2016-12-26T06:48:23.597Z,960.45
2016-12-26T06:49:32.325Z,960.4
2016-12-26T06:50:41.017Z,960.42
2016-12-26T06:51:49.741Z,960.42
2016-12-26T06:52:58.434Z,960.45
2016-12-26T06:54:07.128Z,960.32
2016-12-26T06:55:15.826Z,960.28
2016-12-26T06:56:24.518Z,960.25
2016-12-26T06:57:33.210Z,960.32
2016-12-26T06:58:41.908Z,960.28
2016-12-26T06:59:50.601Z,960.31
2016-12-26T07:00:59.295Z,960.28
2016-12-26T07:02:07.989Z,960.31
2016-12-26T07:03:16.691Z,960.22
2016-12-26T07:04:25.384Z,960.21
2016-12-26T07:05:34.080Z,960.3
2016-12-26T07:06:42.774Z,960.31
2016-12-26T07:07:51.779Z,960.26
2016-12-26T07:09:00.475Z,960.22
2016-12-26T07:10:09.173Z,960.31
2016-12-26T07:11:17.865Z,960.29
2016-12-26T07:12:26.560Z,960.32
2016-12-26T07:13:35.287Z,960.31
2016-12-26T07:14:43.977Z,960.29
2016-12-26T07:15:52.666Z,960.3
2016-12-26T07:17:01.363Z,960.29
2016-12-26T07:18:10.079Z,960.29
2016-12-26T07:19:18.772Z,960.38
2016-12-26T07:20:27.467Z,960.4
2016-12-26T07:21:36.162Z,960.43
2016-12-26T07:22:44.855Z,960.45
2016-12-26T07:23:53.547Z,960.44
2016-12-26T07:25:02.239Z,960.46
2016-12-26T07:26:10.931Z,960.46
2016-12-26T07:27:19.621Z,960.5
2016-12-26T07:28:28.314Z,960.49
2016-12-26T07:29:37.027Z,960.52
2016-12-26T07:30:45.720Z,960.53
2016-12-26T07:31:54.743Z,960.57
2016-12-26T07:33:03.438Z,960.57
2016-12-26T07:34:12.133Z,960.72
2016-12-26T07:35:20.831Z,960.69
2016-12-26T07:36:29.524Z,960.71
2016-12-26T07:37:38.222Z,960.73
2016-12-26T07:38:46.917Z,960.69
2016-12-26T07:39:55.608Z,960.69
2016-12-26T07:41:04.301Z,960.69
2016-12-26T07:42:12.999Z,960.76
2016-12-26T07:43:21.691Z,960.66
2016-12-26T07:44:30.388Z,960.71
2016-12-26T07:45:39.082Z,960.65
2016-12-26T07:46:47.778Z,960.6
2016-12-26T07:47:56.478Z,960.62
2016-12-26T07:49:05.175Z,960.64
2016-12-26T07:50:13.870Z,960.63
2016-12-26T07:51:22.560Z,960.6
2016-12-26T07:52:31.255Z,960.61
2016-12-26T07:53:39.947Z,960.56
2016-12-26T07:54:48.638Z,960.51
2016-12-26T07:55:57.647Z,960.43
2016-12-26T07:57:06.344Z,960.38
2016-12-26T07:58:15.042Z,960.37
2016-12-26T07:59:23.739Z,960.4
2016-12-26T08:00:32.440Z,960.4
2016-12-26T08:01:41.135Z,960.34
2016-12-26T08:02:50.142Z,960.3
2016-12-26T08:03:58.833Z,960.26
2016-12-26T08:05:07.529Z,960.19
2016-12-26T08:06:16.223Z,960.14
2016-12-26T08:07:24.915Z,960.18
2016-12-26T08:08:33.607Z,960.05
2016-12-26T08:09:42.303Z,960.09
2016-12-26T08:10:50.999Z,960.11
2016-12-26T08:11:59.692Z,960.08
2016-12-26T08:13:08.388Z,960.07
2016-12-26T08:14:17.087Z,959.98
2016-12-26T08:15:25.836Z,959.93
2016-12-26T08:16:34.533Z,959.87
2016-12-26T08:17:43.229Z,959.9
2016-12-26T08:18:51.921Z,959.92
2016-12-26T08:20:00.930Z,960
2016-12-26T08:21:09.622Z,959.93
2016-12-26T08:22:18.320Z,959.91
2016-12-26T08:23:27.017Z,959.83
2016-12-26T08:24:35.710Z,959.85
2016-12-26T08:25:44.403Z,959.89
2016-12-26T08:26:53.100Z,959.84
2016-12-26T08:28:01.796Z,959.83
2016-12-26T08:29:10.492Z,959.84
2016-12-26T08:30:19.190Z,959.81
2016-12-26T08:31:27.884Z,959.83
2016-12-26T08:32:36.577Z,959.76
2016-12-26T08:33:45.271Z,959.74
2016-12-26T08:34:53.966Z,959.69
2016-12-26T08:36:02.663Z,959.65
2016-12-26T08:37:11.358Z,959.54
2016-12-26T08:38:20.050Z,959.51
2016-12-26T08:39:28.738Z,959.54
2016-12-26T08:40:37.431Z,959.49
2016-12-26T08:41:46.125Z,959.49
2016-12-26T08:42:54.823Z,959.42
2016-12-26T08:44:03.515Z,959.36
2016-12-26T08:45:12.205Z,959.35
2016-12-26T08:46:20.897Z,959.41
2016-12-26T08:47:29.614Z,959.39
2016-12-26T08:48:38.312Z,959.27
2016-12-26T08:49:47.011Z,959.22
2016-12-26T08:50:55.708Z,959.25
2016-12-26T08:52:04.406Z,959.21
2016-12-26T08:53:13.102Z,959.2
2016-12-26T08:54:21.798Z,959.16
2016-12-26T08:55:30.498Z,959.12
2016-12-26T08:56:39.194Z,959.09
2016-12-26T08:57:47.911Z,959.06
2016-12-26T08:58:56.603Z,959.15
2016-12-26T09:00:05.292Z,959.07
2016-12-26T09:01:13.982Z,959.05
2016-12-26T09:02:22.677Z,959.05
2016-12-26T09:03:31.368Z,959.04
2016-12-26T09:04:40.065Z,958.99
2016-12-26T09:05:48.759Z,958.98
2016-12-26T09:06:57.453Z,958.96
2016-12-26T09:08:06.153Z,958.95
2016-12-26T09:09:14.846Z,958.94
2016-12-26T09:10:23.537Z,958.93
2016-12-26T09:11:32.231Z,958.81
2016-12-26T09:12:40.930Z,958.79
2016-12-26T09:13:49.624Z,958.72
2016-12-26T09:14:58.322Z,958.72
2016-12-26T09:16:07.014Z,958.59
2016-12-26T09:17:15.712Z,958.59
2016-12-26T09:18:24.406Z,958.55
2016-12-26T09:19:33.101Z,958.55
2016-12-26T09:20:41.822Z,958.48
2016-12-26T09:21:50.515Z,958.45
2016-12-26T09:22:59.208Z,958.39
2016-12-26T09:24:07.904Z,958.29
2016-12-26T09:25:16.597Z,958.32
2016-12-26T09:26:25.327Z,958.27
2016-12-26T09:27:34.037Z,958.22
2016-12-26T09:28:42.737Z,958.23
2016-12-26T09:29:51.430Z,958.25
2016-12-26T09:31:00.123Z,958.25
2016-12-26T09:32:08.819Z,958.22
2016-12-26T09:33:17.512Z,958.2
2016-12-26T09:34:26.240Z,958.18
2016-12-26T09:35:34.934Z,958.12
2016-12-26T09:36:43.659Z,958.19
2016-12-26T09:37:52.354Z,958.16
2016-12-26T09:39:01.046Z,958.16
2016-12-26T09:40:09.738Z,958.13
2016-12-26T09:41:18.434Z,958.05
2016-12-26T09:42:27.153Z,958.04
2016-12-26T09:43:35.845Z,958.03
2016-12-26T09:44:44.537Z,958.07
2016-12-26T09:45:53.235Z,958.08
2016-12-26T09:47:01.931Z,958.03
2016-12-26T09:48:10.628Z,958.1
2016-12-26T09:49:19.331Z,957.9
2016-12-26T09:50:28.022Z,957.98
2016-12-26T09:51:36.718Z,957.89
2016-12-26T09:52:45.411Z,957.99
2016-12-26T09:53:54.107Z,958
2016-12-26T09:55:02.805Z,957.91
2016-12-26T09:56:11.504Z,957.82
2016-12-26T09:57:20.198Z,957.85
2016-12-26T09:58:28.922Z,957.85
2016-12-26T09:59:37.614Z,957.8
2016-12-26T10:00:46.305Z,957.79
2016-12-26T10:01:55.006Z,957.82
2016-12-26T10:03:03.724Z,957.69
2016-12-26T10:04:12.416Z,957.66
2016-12-26T10:05:21.111Z,957.65
2016-12-26T10:06:29.805Z,957.66
2016-12-26T10:07:38.518Z,957.58
2016-12-26T10:08:47.226Z,957.73
2016-12-26T10:09:55.922Z,957.61
2016-12-26T10:11:04.616Z,957.75
2016-12-26T10:12:13.310Z,957.72
2016-12-26T10:13:22.010Z,957.74
2016-12-26T10:14:30.710Z,957.7
2016-12-26T10:15:39.403Z,957.64
2016-12-26T10:16:48.095Z,957.66
2016-12-26T10:17:56.786Z,957.76
2016-12-26T10:19:05.483Z,957.64
2016-12-26T10:20:14.177Z,957.52
2016-12-26T10:21:22.869Z,957.4
2016-12-26T10:22:31.566Z,957.44
2016-12-26T10:23:40.258Z,957.31
2016-12-26T10:24:48.948Z,957.34
2016-12-26T10:25:57.644Z,957.31
2016-12-26T10:27:06.343Z,957.28
2016-12-26T10:28:15.035Z,957.21
2016-12-26T10:29:23.731Z,957.14
2016-12-26T10:30:32.422Z,957.17
2016-12-26T10:31:41.122Z,957.13
2016-12-26T10:32:49.817Z,957.09
2016-12-26T10:33:58.512Z,957.07
2016-12-26T10:35:07.214Z,956.99
2016-12-26T10:36:15.906Z,956.99
2016-12-26T10:37:24.605Z,956.95
2016-12-26T10:38:33.299Z,956.87
2016-12-26T10:39:41.991Z,956.82
2016-12-26T10:40:50.696Z,956.76
2016-12-26T10:41:59.387Z,956.66
2016-12-26T10:43:08.084Z,956.65
2016-12-26T10:44:16.775Z,956.61
2016-12-26T10:45:25.470Z,956.59
2016-12-26T10:46:34.169Z,956.61
2016-12-26T10:47:42.862Z,956.44
2016-12-26T10:48:51.554Z,956.55
2016-12-26T10:50:00.243Z,956.59
2016-12-26T10:51:08.934Z,956.65
2016-12-26T10:52:17.629Z,956.51
2016-12-26T10:53:26.324Z,956.51
2016-12-26T10:54:35.017Z,956.54
2016-12-26T10:55:43.711Z,956.53
2016-12-26T10:56:52.481Z,956.58
2016-12-26T10:58:01.178Z,956.54
2016-12-26T10:59:09.880Z,956.59
2016-12-26T11:00:18.572Z,956.55
2016-12-26T11:01:27.263Z,956.52
2016-12-26T11:02:35.955Z,956.27
2016-12-26T11:03:44.676Z,956.43
2016-12-26T11:04:53.370Z,956.25
2016-12-26T11:06:02.065Z,956.28
2016-12-26T11:07:10.760Z,956.32
2016-12-26T11:08:19.454Z,956.1
2016-12-26T11:09:28.182Z,956.27
2016-12-26T11:10:36.876Z,956.29
2016-12-26T11:11:45.570Z,956.19
2016-12-26T11:12:54.267Z,956.17
2016-12-26T11:14:02.962Z,956.22
2016-12-26T11:15:11.651Z,956.14
2016-12-26T11:16:20.352Z,956.22
2016-12-26T11:17:29.052Z,956.21
2016-12-26T11:18:37.748Z,956.28
2016-12-26T11:19:46.444Z,956.14
2016-12-26T11:20:55.137Z,956.13
2016-12-26T11:22:03.829Z,956.2
2016-12-26T11:23:12.545Z,956.02
2016-12-26T11:24:21.241Z,956.04
2016-12-26T11:25:29.936Z,956.06
2016-12-26T11:26:38.639Z,956.1
2016-12-26T11:27:47.331Z,956.03
2016-12-26T11:28:56.031Z,955.88
2016-12-26T11:30:04.753Z,956.1
2016-12-26T11:31:13.453Z,956.09
2016-12-26T11:32:22.143Z,956.03
2016-12-26T11:33:31.155Z,955.92
2016-12-26T11:34:39.847Z,955.88
2016-12-26T11:35:48.852Z,955.98
2016-12-26T11:36:57.548Z,955.84
2016-12-26T11:38:06.251Z,955.75
2016-12-26T11:39:14.945Z,955.71
2016-12-26T11:40:23.678Z,955.78
2016-12-26T11:41:32.690Z,955.8
2016-12-26T11:42:41.383Z,955.84
2016-12-26T11:43:50.077Z,955.72
2016-12-26T11:44:58.770Z,955.72
2016-12-26T11:46:07.463Z,955.61
2016-12-26T11:47:16.159Z,955.66
2016-12-26T11:48:24.852Z,955.74
2016-12-26T11:49:33.547Z,955.67
2016-12-26T11:50:42.238Z,955.58
2016-12-26T11:51:50.936Z,955.57
2016-12-26T11:52:59.730Z,955.54
2016-12-26T11:54:08.427Z,955.59
2016-12-26T11:55:17.121Z,955.45
2016-12-26T11:56:25.817Z,955.56
2016-12-26T11:57:34.507Z,955.5
2016-12-26T11:58:43.200Z,955.48
2016-12-26T11:59:51.894Z,955.5
2016-12-26T12:01:00.591Z,955.44
2016-12-26T12:02:09.315Z,955.56
2016-12-26T12:03:18.009Z,955.5
2016-12-26T12:04:26.708Z,955.49
2016-12-26T12:05:35.720Z,955.51
2016-12-26T12:06:44.414Z,955.5
2016-12-26T12:07:53.423Z,955.58
2016-12-26T12:09:02.119Z,955.53
2016-12-26T12:10:10.822Z,955.55
2016-12-26T12:11:19.515Z,955.46
2016-12-26T12:12:28.214Z,955.46
2016-12-26T12:13:36.909Z,955.44
2016-12-26T12:14:45.606Z,955.42
2016-12-26T12:15:54.299Z,955.45
2016-12-26T12:17:02.996Z,955.33
2016-12-26T12:18:11.692Z,955.3
2016-12-26T12:19:20.387Z,955.31
2016-12-26T12:20:29.087Z,955.37
2016-12-26T12:21:37.813Z,955.42
2016-12-26T12:22:46.514Z,955.47
2016-12-26T12:23:55.214Z,955.47
2016-12-26T12:25:03.916Z,955.56
2016-12-26T12:26:12.618Z,955.63
2016-12-26T12:27:21.313Z,955.69
2016-12-26T12:28:30.009Z,955.64
2016-12-26T12:29:38.705Z,955.72
2016-12-26T12:30:47.401Z,955.72
2016-12-26T12:31:56.098Z,955.69
2016-12-26T12:33:04.803Z,955.65
2016-12-26T12:34:13.529Z,955.66
2016-12-26T12:35:22.563Z,955.61
2016-12-26T12:36:31.309Z,955.57
2016-12-26T12:37:40.005Z,955.57
2016-12-26T12:38:49.115Z,955.65
2016-12-26T12:39:57.807Z,955.67
2016-12-26T12:41:06.504Z,955.64
2016-12-26T12:42:15.201Z,955.53
2016-12-26T12:43:23.894Z,955.5
2016-12-26T12:44:32.593Z,955.43
2016-12-26T12:45:41.295Z,955.42
2016-12-26T12:46:49.993Z,955.49
2016-12-26T12:47:58.691Z,955.38
2016-12-26T12:49:07.400Z,955.41
2016-12-26T12:50:16.095Z,955.46
2016-12-26T12:51:24.785Z,955.55
2016-12-26T12:52:33.508Z,955.61
2016-12-26T12:53:42.206Z,955.59
2016-12-26T12:54:50.903Z,955.65
2016-12-26T12:55:59.593Z,955.59
2016-12-26T12:57:08.291Z,955.67
2016-12-26T12:58:16.981Z,955.62
2016-12-26T12:59:25.674Z,955.67
2016-12-26T13:00:34.374Z,955.74
2016-12-26T13:01:43.077Z,955.68
2016-12-26T13:02:51.771Z,955.59
2016-12-26T13:04:00.462Z,955.61
2016-12-26T13:05:09.159Z,955.62
2016-12-26T13:06:17.855Z,955.51
2016-12-26T13:07:26.547Z,955.54
2016-12-26T13:08:35.240Z,955.54
2016-12-26T13:09:43.959Z,955.39
2016-12-26T13:10:52.648Z,955.35
2016-12-26T13:12:01.339Z,955.23
2016-12-26T13:13:10.035Z,955.15
2016-12-26T13:14:18.726Z,955.12
2016-12-26T13:15:27.420Z,955.15
2016-12-26T13:16:36.115Z,955.22
2016-12-26T13:17:44.811Z,955.15
2016-12-26T13:18:53.553Z,955.11
2016-12-26T13:20:02.259Z,955.11
2016-12-26T13:21:11.271Z,955.1
2016-12-26T13:22:19.965Z,955.16
2016-12-26T13:23:28.658Z,955.21
2016-12-26T13:24:37.356Z,955.17
2016-12-26T13:25:46.047Z,955.17
2016-12-26T13:26:54.736Z,955.21
2016-12-26T13:28:03.429Z,955.21
2016-12-26T13:29:12.121Z,955.16
2016-12-26T13:30:20.814Z,955.21
2016-12-26T13:31:29.505Z,955.18
2016-12-26T13:32:38.206Z,955.25
2016-12-26T13:33:46.899Z,955.27
2016-12-26T13:34:55.590Z,955.15
2016-12-26T13:36:04.289Z,955.09
2016-12-26T13:37:12.980Z,954.97
2016-12-26T13:38:21.702Z,954.95
2016-12-26T13:39:30.398Z,954.92
2016-12-26T13:40:39.092Z,954.93
2016-12-26T13:41:47.783Z,954.99
2016-12-26T13:42:56.473Z,954.97
2016-12-26T13:44:05.177Z,955.17
2016-12-26T13:45:13.868Z,955.02
2016-12-26T13:46:22.562Z,955.02
2016-12-26T13:47:31.259Z,954.95
2016-12-26T13:48:40.270Z,955.1
2016-12-26T13:49:48.959Z,955.09
2016-12-26T13:50:57.659Z,955.03
2016-12-26T13:52:06.349Z,955.05
2016-12-26T13:53:15.073Z,955.05
2016-12-26T13:54:23.767Z,955.05
2016-12-26T13:55:32.459Z,955.08
2016-12-26T13:56:41.150Z,954.94
2016-12-26T13:57:49.845Z,954.88
2016-12-26T13:58:58.540Z,954.93
2016-12-26T14:00:07.236Z,954.85
2016-12-26T14:01:15.928Z,954.81
2016-12-26T14:02:24.620Z,954.72
2016-12-26T14:03:33.309Z,954.65
2016-12-26T14:04:41.999Z,954.69
2016-12-26T14:05:50.693Z,954.65
2016-12-26T14:06:59.394Z,954.62
2016-12-26T14:08:08.085Z,954.57
2016-12-26T14:09:16.774Z,954.59
2016-12-26T14:10:25.467Z,954.61
2016-12-26T14:11:34.156Z,954.49
2016-12-26T14:12:42.849Z,954.57
2016-12-26T14:13:51.542Z,954.52
2016-12-26T14:15:00.232Z,954.53
2016-12-26T14:16:08.927Z,954.55
2016-12-26T14:17:17.618Z,954.57
2016-12-26T14:18:26.313Z,954.51
2016-12-26T14:19:35.002Z,954.51